createdAt,value
2018-11-06T00:00:29.792Z,99012.47
2018-11-06T00:03:03.436Z,99013.94
2018-11-06T00:05:31.994Z,99013.98
2018-11-06T00:08:00.508Z,99013.22
2018-11-06T00:10:29.077Z,99012.86
2018-11-06T00:12:57.635Z,99011.66
2018-11-06T00:15:26.233Z,99016.11
2018-11-06T00:17:54.755Z,99014.80
2018-11-06T00:20:23.306Z,99019.98
2018-11-06T00:22:51.820Z,99015.23
2018-11-06T00:25:20.345Z,99007.81
2018-11-06T00:27:49.505Z,99011.40
2018-11-06T00:30:18.451Z,99009.36
2018-11-06T00:32:46.932Z,99006.03
2018-11-06T00:35:15.934Z,99004.39
2018-11-06T00:37:45.367Z,99003.84
2018-11-06T00:40:14.116Z,99004.02
2018-11-06T00:42:42.567Z,99001.50
2018-11-06T00:45:14.618Z,99007.81
2018-11-06T00:47:43.241Z,98995.80
2018-11-06T00:50:12.540Z,98999.95
2018-11-06T00:52:42.240Z,98992.64
2018-11-06T00:55:10.955Z,98989.34
2018-11-06T00:57:41.195Z,98990.80
2018-11-06T01:00:13.801Z,98998.88
2018-11-06T01:02:42.434Z,99006.08
2018-11-06T01:05:12.103Z,99006.14
2018-11-06T01:07:40.822Z,99003.25
2018-11-06T01:10:10.265Z,99008.63
2018-11-06T01:12:39.176Z,99009.56
2018-11-06T01:15:10.036Z,99012.32
2018-11-06T01:17:38.618Z,99008.52
2018-11-06T01:20:09.734Z,99016.58
2018-11-06T01:22:38.388Z,99026.32
2018-11-06T01:25:07.701Z,99034.28
2018-11-06T01:27:36.255Z,99037.03
2018-11-06T01:30:06.314Z,99035.38
2018-11-06T01:32:34.823Z,99036.75
2018-11-06T01:35:03.372Z,99038.09
2018-11-06T01:37:32.016Z,99027.84
2018-11-06T01:40:00.666Z,99014.32
2018-11-06T01:42:29.213Z,99017.45
2018-11-06T01:44:57.678Z,99024.97
2018-11-06T01:47:26.209Z,99017.59
2018-11-06T01:49:54.742Z,99018.66
2018-11-06T01:52:23.219Z,99028.42
2018-11-06T01:54:51.759Z,99028.07
2018-11-06T01:57:20.401Z,99026.88
2018-11-06T01:59:48.878Z,99023.47
2018-11-06T02:02:17.415Z,99027.46
2018-11-06T02:04:45.951Z,99028.41
2018-11-06T02:07:14.519Z,99017.93
2018-11-06T02:09:43.122Z,99018.45
2018-11-06T02:12:11.623Z,99013.30
2018-11-06T02:14:40.116Z,99014.20
2018-11-06T02:17:08.699Z,99016.41
2018-11-06T02:19:37.438Z,99016.06
2018-11-06T02:22:06.003Z,99013.03
2018-11-06T02:24:34.579Z,99013.09
2018-11-06T02:27:03.089Z,99014.83
2018-11-06T02:29:31.620Z,99012.30
2018-11-06T02:32:00.122Z,99007.55
2018-11-06T02:34:28.716Z,99009.32
2018-11-06T02:36:57.261Z,99005.88
2018-11-06T02:39:25.856Z,99011.59
2018-11-06T02:41:54.469Z,99004.16
2018-11-06T02:44:23.069Z,99001.63
2018-11-06T02:46:51.624Z,99001.65
2018-11-06T02:49:20.226Z,99004.33
2018-11-06T02:51:48.769Z,98994.77
2018-11-06T02:54:17.235Z,98996.52
2018-11-06T02:56:45.794Z,98999.20
2018-11-06T02:59:14.339Z,99000.13
2018-11-06T03:01:42.875Z,98996.69
2018-11-06T03:04:11.385Z,98998.02
2018-11-06T03:06:39.916Z,98995.89
2018-11-06T03:09:08.650Z,98998.54
2018-11-06T03:11:37.590Z,98999.44
2018-11-06T03:14:06.132Z,98992.86
2018-11-06T03:16:34.671Z,98994.61
2018-11-06T03:19:03.277Z,98994.66
2018-11-06T03:21:31.875Z,98988.55
2018-11-06T03:24:00.338Z,98990.67
2018-11-06T03:26:28.875Z,98986.75
2018-11-06T03:28:57.402Z,98988.44
2018-11-06T03:31:25.931Z,98991.88
2018-11-06T03:33:54.397Z,98985.28
2018-11-06T03:36:22.933Z,98996.58
2018-11-06T03:38:51.400Z,99003.45
2018-11-06T03:41:19.924Z,98999.47
2018-11-06T03:43:48.524Z,99003.34
2018-11-06T03:46:17.042Z,99010.28
2018-11-06T03:48:45.522Z,99007.11
2018-11-06T03:51:14.002Z,99004.44
2018-11-06T03:53:42.515Z,99002.95
2018-11-06T03:56:11.001Z,99001.52
2018-11-06T03:58:39.468Z,98997.48
2018-11-06T04:01:08.160Z,98992.09
2018-11-06T04:03:36.783Z,98644.77
2018-11-06T04:06:05.575Z,98987.04
2018-11-06T04:08:34.313Z,98991.30
2018-11-06T04:11:02.952Z,98996.42
2018-11-06T04:13:31.604Z,98995.55
2018-11-06T04:16:00.300Z,98995.05
2018-11-06T04:18:28.983Z,99001.60
2018-11-06T04:20:57.579Z,99008.16
2018-11-06T04:23:26.245Z,99011.25
2018-11-06T04:25:54.929Z,99013.38
2018-11-06T04:28:23.629Z,98989.63
2018-11-06T04:30:52.446Z,99007.20
2018-11-06T04:33:21.051Z,99011.94
2018-11-06T04:35:49.639Z,99014.97
2018-11-06T04:38:18.261Z,99013.57
2018-11-06T04:40:46.970Z,99014.35
2018-11-06T04:43:15.549Z,99011.70
2018-11-06T04:45:44.293Z,99010.80
2018-11-06T04:48:12.907Z,99004.73
2018-11-06T04:50:41.532Z,99004.14
2018-11-06T04:53:10.002Z,98998.36
2018-11-06T04:55:38.631Z,98997.39
2018-11-06T04:58:07.137Z,99004.70
2018-11-06T05:00:35.720Z,99005.95
2018-11-06T05:03:04.237Z,98998.45
2018-11-06T05:05:32.812Z,98994.55
2018-11-06T05:08:01.506Z,98990.58
2018-11-06T05:10:30.127Z,98983.11
2018-11-06T05:12:58.625Z,98986.98
2018-11-06T05:15:27.235Z,99003.10
2018-11-06T05:17:55.775Z,99004.31
2018-11-06T05:20:24.398Z,98999.91
2018-11-06T05:22:53.035Z,98998.59
2018-11-06T05:25:21.673Z,99005.16
2018-11-06T05:27:50.304Z,98995.59
2018-11-06T05:30:18.914Z,99001.78
2018-11-06T05:32:47.625Z,99006.26
2018-11-06T05:35:16.256Z,99010.32
2018-11-06T05:37:44.905Z,99000.42
2018-11-06T05:40:24.355Z,98997.86
2018-11-06T05:42:52.921Z,98992.73
2018-11-06T05:45:21.497Z,98987.08
2018-11-06T05:47:50.027Z,98977.91
2018-11-06T05:50:18.590Z,98980.13
2018-11-06T05:52:47.200Z,98982.74
2018-11-06T05:55:15.935Z,98990.61
2018-11-06T05:57:44.582Z,98994.92
2018-11-06T06:00:13.321Z,98994.45
2018-11-06T06:02:41.931Z,98995.70
2018-11-06T06:05:10.446Z,98989.95
2018-11-06T06:07:39.014Z,98989.52
2018-11-06T06:10:07.597Z,98989.05
2018-11-06T06:12:36.556Z,98996.89
2018-11-06T06:15:05.276Z,98991.58
2018-11-06T06:17:33.969Z,98992.36
2018-11-06T06:20:02.603Z,98994.92
2018-11-06T06:22:31.242Z,98992.23
2018-11-06T06:24:59.735Z,98989.54
2018-11-06T06:27:28.444Z,98992.09
2018-11-06T06:29:56.996Z,98994.69
2018-11-06T06:32:25.626Z,98989.84
2018-11-06T06:34:54.147Z,98996.44
2018-11-06T06:37:22.822Z,98992.91
2018-11-06T06:39:51.535Z,98995.53
2018-11-06T06:42:20.123Z,99001.66
2018-11-06T06:44:48.662Z,98977.11
2018-11-06T06:47:17.212Z,99010.41
2018-11-06T06:49:45.860Z,99007.81
2018-11-06T06:52:14.601Z,99009.09
2018-11-06T06:54:43.586Z,99009.09
2018-11-06T06:57:12.299Z,99011.25
2018-11-06T06:59:41.232Z,99014.28
2018-11-06T07:02:09.887Z,99014.69
2018-11-06T07:04:38.524Z,99014.22
2018-11-06T07:07:07.145Z,99020.28
2018-11-06T07:09:36.435Z,99027.96
2018-11-06T07:12:05.085Z,99027.83
2018-11-06T07:14:34.023Z,99030.29
2018-11-06T07:17:02.726Z,99037.16
2018-11-06T07:19:31.580Z,99034.77
2018-11-06T07:22:00.187Z,99024.90
2018-11-06T07:24:28.741Z,99028.86
2018-11-06T07:26:57.282Z,99031.98
2018-11-06T07:29:25.894Z,99041.45
2018-11-06T07:31:54.482Z,99058.80
2018-11-06T07:34:23.036Z,99042.31
2018-11-06T07:36:51.629Z,99049.67
2018-11-06T07:39:20.265Z,99055.25
2018-11-06T07:41:48.878Z,99067.35
2018-11-06T07:44:17.510Z,99076.37
2018-11-06T07:46:46.161Z,99081.11
2018-11-06T07:49:14.702Z,99085.55
2018-11-06T07:51:43.271Z,99088.44
2018-11-06T07:54:11.783Z,99093.00
2018-11-06T07:56:40.326Z,99082.04
2018-11-06T07:59:09.460Z,99086.46
2018-11-06T08:01:38.327Z,99077.81
2018-11-06T08:04:07.098Z,99084.80
2018-11-06T08:06:35.591Z,99085.51
2018-11-06T08:09:08.943Z,99086.77
2018-11-06T08:11:39.286Z,99091.37
2018-11-06T08:14:07.955Z,99088.51
2018-11-06T08:16:36.619Z,99090.52
2018-11-06T08:19:05.265Z,99085.84
2018-11-06T08:21:33.879Z,99080.94
2018-11-06T08:24:02.841Z,99077.46
2018-11-06T08:26:31.530Z,99077.27
2018-11-06T08:29:00.296Z,99082.23
2018-11-06T08:31:29.535Z,99091.08
2018-11-06T08:33:58.195Z,99086.80
2018-11-06T08:36:26.997Z,99088.24
2018-11-06T08:38:55.748Z,99082.36
2018-11-06T08:41:24.491Z,99081.31
2018-11-06T08:43:53.321Z,99083.02
2018-11-06T08:46:22.060Z,99085.96
2018-11-06T08:48:50.801Z,99088.42
2018-11-06T08:51:19.590Z,99089.95
2018-11-06T08:53:48.233Z,99081.34
2018-11-06T08:56:16.845Z,99074.91
2018-11-06T08:58:45.610Z,99062.69
2018-11-06T09:01:14.509Z,99057.61
2018-11-06T09:03:43.285Z,99064.19
2018-11-06T09:06:11.857Z,99067.36
2018-11-06T09:08:40.457Z,99063.05
2018-11-06T09:11:09.049Z,99053.62
2018-11-06T09:13:37.663Z,99044.81
2018-11-06T09:16:06.783Z,99041.45
2018-11-06T09:18:35.580Z,99040.76
2018-11-06T09:21:04.073Z,99042.77
2018-11-06T09:23:32.882Z,99043.78
2018-11-06T09:26:01.411Z,99034.45
2018-11-06T09:28:30.033Z,99035.43
2018-11-06T09:30:58.682Z,99042.83
2018-11-06T09:33:27.568Z,99041.55
2018-11-06T09:35:56.154Z,99037.52
2018-11-06T09:38:24.683Z,99034.75
2018-11-06T09:40:53.327Z,99043.06
2018-11-06T09:43:22.005Z,99048.13
2018-11-06T09:45:50.565Z,99058.13
2018-11-06T09:48:19.209Z,99059.88
2018-11-06T09:50:47.763Z,99063.59
2018-11-06T09:53:16.352Z,99058.28
2018-11-06T09:55:45.023Z,99054.03
2018-11-06T09:58:13.526Z,99042.66
2018-11-06T10:00:42.045Z,99040.11
2018-11-06T10:03:10.818Z,99039.77
2018-11-06T10:05:39.409Z,99042.45
2018-11-06T10:08:07.970Z,99043.75
2018-11-06T10:10:36.550Z,99031.08
2018-11-06T10:13:05.488Z,99040.63
2018-11-06T10:15:34.088Z,99037.12
2018-11-06T10:18:02.711Z,99028.23
2018-11-06T10:20:31.415Z,99037.03
2018-11-06T10:23:00.132Z,99040.53
2018-11-06T10:25:28.782Z,99040.87
2018-11-06T10:27:57.744Z,99034.16
2018-11-06T10:30:26.383Z,99029.66
2018-11-06T10:32:54.904Z,99025.97
2018-11-06T10:35:23.559Z,99023.92
2018-11-06T10:37:52.130Z,99012.63
2018-11-06T10:40:22.705Z,99015.06
2018-11-06T10:42:51.873Z,99011.27
2018-11-06T10:45:21.157Z,99005.69
2018-11-06T10:47:49.959Z,99010.87
2018-11-06T10:50:19.389Z,99003.25
2018-11-06T10:52:49.070Z,99001.73
2018-11-06T10:55:17.827Z,99002.71
2018-11-06T10:57:46.489Z,98989.81
2018-11-06T11:00:20.395Z,98987.50
2018-11-06T11:02:54.236Z,98992.62
2018-11-06T11:05:24.708Z,98982.22
2018-11-06T11:07:53.495Z,98988.34
2018-11-06T11:10:22.112Z,98982.21
2018-11-06T11:12:50.657Z,98977.47
2018-11-06T11:15:19.302Z,98971.16
2018-11-06T11:17:48.000Z,98966.27
2018-11-06T11:20:17.569Z,98960.18
2018-11-06T11:22:46.491Z,98958.19
2018-11-06T11:25:16.692Z,98948.39
2018-11-06T11:27:47.274Z,98943.95
2018-11-06T11:30:17.214Z,98954.82
2018-11-06T11:32:48.734Z,98950.29
2018-11-06T11:35:18.251Z,98953.09
2018-11-06T11:37:48.605Z,98949.91
2018-11-06T11:40:18.446Z,98951.55
2018-11-06T11:42:48.966Z,98938.27
2018-11-06T11:45:19.126Z,98935.71
2018-11-06T11:47:48.023Z,98937.20
2018-11-06T11:50:17.314Z,98933.98
2018-11-06T11:52:46.547Z,98926.44
2018-11-06T11:55:15.850Z,98941.57
2018-11-06T11:57:49.941Z,98936.81
2018-11-06T12:00:20.512Z,98944.14
2018-11-06T12:02:50.665Z,98939.86
2018-11-06T12:05:23.274Z,98935.88
2018-11-06T12:07:54.093Z,98931.22
2018-11-06T12:10:22.658Z,98926.53
2018-11-06T12:12:51.797Z,98918.28
2018-11-06T12:15:20.588Z,98917.70
2018-11-06T12:17:49.808Z,98911.09
2018-11-06T12:20:18.566Z,98911.03
2018-11-06T12:22:49.485Z,98896.19
2018-11-06T12:25:18.492Z,98888.81
2018-11-06T12:27:47.644Z,98889.69
2018-11-06T12:30:17.701Z,98882.18
2018-11-06T12:32:46.512Z,98885.92
2018-11-06T12:35:15.563Z,98878.39
2018-11-06T12:37:44.147Z,98882.58
2018-11-06T12:40:13.487Z,98884.09
2018-11-06T12:42:42.641Z,98886.00
2018-11-06T12:45:12.584Z,98882.55
2018-11-06T12:47:41.340Z,98887.27
2018-11-06T12:50:14.248Z,98875.39
2018-11-06T12:52:43.418Z,98888.69
2018-11-06T12:55:13.176Z,98887.91
2018-11-06T12:57:41.779Z,98878.89
2018-11-06T13:00:17.096Z,98879.58
2018-11-06T13:02:45.863Z,98871.97
2018-11-06T13:05:14.932Z,98867.63
2018-11-06T13:07:44.688Z,98865.97
2018-11-06T13:10:14.163Z,98870.92
2018-11-06T13:12:43.370Z,98865.95
2018-11-06T13:15:12.267Z,98856.84
2018-11-06T13:17:41.020Z,98853.00
2018-11-06T13:20:12.014Z,98855.41
2018-11-06T13:22:41.243Z,98848.47
2018-11-06T13:25:09.997Z,98848.14
2018-11-06T13:27:39.754Z,98841.80
2018-11-06T13:30:11.617Z,98840.47
2018-11-06T13:32:42.124Z,98839.25
2018-11-06T13:35:11.322Z,98835.22
2018-11-06T13:37:40.644Z,98836.09
2018-11-06T13:40:11.943Z,98838.43
2018-11-06T13:42:41.081Z,98833.93
2018-11-06T13:45:13.538Z,98829.47
2018-11-06T13:47:42.424Z,98831.02
2018-11-06T13:50:11.032Z,98822.77
2018-11-06T13:52:39.823Z,98828.13
2018-11-06T13:55:10.176Z,98819.34
2018-11-06T13:57:38.869Z,98828.50
2018-11-06T14:00:14.334Z,98808.81
2018-11-06T14:02:43.254Z,98811.27
2018-11-06T14:05:12.254Z,98819.80
2018-11-06T14:07:41.299Z,98818.13
2018-11-06T14:10:10.139Z,98816.91
2018-11-06T14:12:38.921Z,98824.56
2018-11-06T14:15:07.730Z,98814.24
2018-11-06T14:17:36.723Z,98817.05
2018-11-06T14:20:06.389Z,98816.54
2018-11-06T14:22:35.117Z,98813.88
2018-11-06T14:25:03.902Z,98811.30
2018-11-06T14:27:32.846Z,98810.30
2018-11-06T14:30:01.625Z,98812.13
2018-11-06T14:32:30.412Z,98810.53
2018-11-06T14:34:59.206Z,98814.16
2018-11-06T14:37:27.964Z,98813.76
2018-11-06T14:39:57.133Z,98815.84
2018-11-06T14:42:26.468Z,98816.77
2018-11-06T14:44:55.079Z,98812.63
2018-11-06T14:47:23.823Z,98823.29
2018-11-06T14:49:52.616Z,98819.84
2018-11-06T14:52:21.575Z,98821.29
2018-11-06T14:54:50.325Z,98823.64
2018-11-06T14:57:18.976Z,98822.89
2018-11-06T14:59:47.483Z,98824.30
2018-11-06T15:02:16.111Z,98834.67
2018-11-06T15:04:44.851Z,98826.84
2018-11-06T15:07:13.628Z,98832.38
2018-11-06T15:09:42.266Z,98826.00
2018-11-06T15:12:10.867Z,98832.47
2018-11-06T15:14:39.798Z,98822.46
2018-11-06T15:17:08.473Z,98823.48
2018-11-06T15:19:37.224Z,98826.11
2018-11-06T15:22:06.097Z,98822.36
2018-11-06T15:24:34.769Z,98839.02
2018-11-06T15:27:03.511Z,98836.27
2018-11-06T15:29:32.403Z,98831.48
2018-11-06T15:32:01.624Z,98829.83
2018-11-06T15:34:30.188Z,98826.37
2018-11-06T15:36:59.853Z,98819.28
2018-11-06T15:39:28.480Z,98820.84
2018-11-06T15:41:57.309Z,98815.92
2018-11-06T15:44:25.870Z,98812.92
2018-11-06T15:46:54.483Z,98818.68
2018-11-06T15:49:23.086Z,98830.09
2018-11-06T15:51:51.670Z,98823.47
2018-11-06T15:54:20.277Z,98827.52
2018-11-06T15:56:48.870Z,98825.55
2018-11-06T15:59:17.497Z,98823.66
2018-11-06T16:01:46.300Z,98828.52
2018-11-06T16:04:21.208Z,98829.78
2018-11-06T16:06:50.040Z,98823.23
2018-11-06T16:09:18.640Z,98829.31
2018-11-06T16:11:47.422Z,98826.20
2018-11-06T16:14:16.195Z,98828.95
2018-11-06T16:16:44.873Z,98832.59
2018-11-06T16:19:14.096Z,98830.89
2018-11-06T16:21:42.811Z,98830.98
2018-11-06T16:24:11.472Z,98835.91
2018-11-06T16:26:40.149Z,98829.75
2018-11-06T16:29:08.787Z,98835.47
2018-11-06T16:31:37.571Z,98832.94
2018-11-06T16:34:06.339Z,98833.63
2018-11-06T16:36:35.099Z,98839.87
2018-11-06T16:39:04.650Z,98833.13
2018-11-06T16:41:33.546Z,98836.90
2018-11-06T16:44:02.527Z,98838.99
2018-11-06T16:46:31.228Z,98840.86
2018-11-06T16:48:59.948Z,98835.83
2018-11-06T16:51:28.607Z,98843.03
2018-11-06T16:53:57.319Z,98847.12
2018-11-06T16:56:26.387Z,98835.84
2018-11-06T16:58:55.501Z,98845.50
2018-11-06T17:01:24.478Z,98843.04
2018-11-06T17:03:53.477Z,98847.02
2018-11-06T17:06:52.684Z,98844.91
2018-11-06T17:09:21.944Z,98849.94
2018-11-06T17:11:50.871Z,98871.17
2018-11-06T17:14:19.465Z,98867.34
2018-11-06T17:16:48.484Z,98866.13
2018-11-06T17:19:17.842Z,98874.09
2018-11-06T17:21:46.465Z,98883.45
2018-11-06T17:24:15.216Z,98735.95
2018-11-06T17:26:43.776Z,98894.33
2018-11-06T17:29:12.437Z,98895.55
2018-11-06T17:31:41.245Z,98906.53
2018-11-06T17:34:10.083Z,98912.86
2018-11-06T17:36:38.751Z,98912.02
2018-11-06T17:39:15.271Z,98918.81
2018-11-06T17:41:43.848Z,98923.53
2018-11-06T17:44:12.431Z,98920.20
2018-11-06T17:46:40.999Z,98927.84
2018-11-06T17:49:09.992Z,98913.98
2018-11-06T17:51:38.520Z,98921.14
2018-11-06T17:54:07.232Z,98933.58
2018-11-06T17:56:35.864Z,98932.25
2018-11-06T17:59:04.473Z,98923.89
2018-11-06T18:01:33.214Z,98922.41
2018-11-06T18:04:04.941Z,98927.05
2018-11-06T18:06:33.661Z,98942.03
2018-11-06T18:09:02.348Z,98914.75
2018-11-06T18:11:30.986Z,98930.46
2018-11-06T18:14:02.483Z,98945.84
2018-11-06T18:16:33.955Z,98939.45
2018-11-06T18:19:23.652Z,98945.45
2018-11-06T18:24:45.336Z,98944.78
2018-11-06T18:30:13.447Z,98950.14
2018-11-06T18:32:59.291Z,98948.67
2018-11-06T18:35:27.973Z,98946.09
2018-11-06T18:37:56.637Z,98953.18
2018-11-06T18:40:25.290Z,98955.22
2018-11-06T18:42:53.832Z,98958.42
2018-11-06T18:45:22.544Z,98966.04
2018-11-06T18:47:51.160Z,98966.66
2018-11-06T18:50:21.039Z,98962.05
2018-11-06T18:52:52.158Z,98974.12
2018-11-06T18:55:20.898Z,98965.95
2018-11-06T18:57:49.441Z,98961.25
2018-11-06T19:00:19.205Z,98960.41
2018-11-06T19:02:49.306Z,98964.67
2018-11-06T19:05:18.373Z,98953.31
2018-11-06T19:07:47.483Z,98958.44
2018-11-06T19:10:17.170Z,98964.28
2018-11-06T19:12:46.152Z,98976.62
2018-11-06T19:15:17.679Z,98979.00
2018-11-06T19:17:48.084Z,98992.73
2018-11-06T19:20:16.817Z,98984.95
2018-11-06T19:25:48.458Z,98997.17
2018-11-06T19:28:38.307Z,98995.08
2018-11-06T19:31:15.897Z,99001.50
2018-11-06T19:33:45.656Z,99004.69
2018-11-06T19:36:16.824Z,99008.32
2018-11-06T19:38:46.135Z,99006.34
2018-11-06T19:41:15.411Z,99023.13
2018-11-06T19:43:45.240Z,99007.03
2018-11-06T19:46:14.288Z,99006.03
2018-11-06T19:48:43.582Z,99005.40
2018-11-06T19:51:12.726Z,99004.73
2018-11-06T19:53:41.467Z,99002.58
2018-11-06T19:56:09.897Z,99005.81
2018-11-06T19:58:38.478Z,99018.69
2018-11-06T20:01:07.096Z,99011.44
2018-11-06T20:03:35.673Z,99004.36
2018-11-06T20:06:04.261Z,98911.64
2018-11-06T20:08:32.850Z,98994.92
2018-11-06T20:11:01.413Z,99005.63
2018-11-06T20:13:29.952Z,99007.46
2018-11-06T20:15:58.475Z,99005.75
2018-11-06T20:18:27.177Z,99003.59
2018-11-06T20:20:55.830Z,99011.95
2018-11-06T20:23:24.462Z,99010.19
2018-11-06T20:25:52.986Z,99008.53
2018-11-06T20:28:21.596Z,99013.42
2018-11-06T20:30:50.151Z,99012.97
2018-11-06T20:33:18.815Z,99004.58
2018-11-06T20:35:47.348Z,98994.99
2018-11-06T20:38:16.071Z,99002.52
2018-11-06T20:40:44.730Z,98996.41
2018-11-06T20:43:13.452Z,99001.73
2018-11-06T20:45:42.038Z,99014.55
2018-11-06T20:48:10.679Z,99004.16
2018-11-06T20:50:39.272Z,99012.41
2018-11-06T20:53:08.028Z,99004.09
2018-11-06T20:55:36.742Z,99005.81
2018-11-06T20:58:05.287Z,99003.23
2018-11-06T21:00:33.880Z,99008.50
2018-11-06T21:03:03.300Z,99018.81
2018-11-06T21:05:31.944Z,99015.64
2018-11-06T21:08:00.677Z,99015.98
2018-11-06T21:10:30.615Z,99015.64
2018-11-06T21:13:00.243Z,99013.39
2018-11-06T21:15:29.663Z,99015.70
2018-11-06T21:17:58.338Z,99016.17
2018-11-06T21:20:27.024Z,99013.64
2018-11-06T21:22:55.654Z,99021.95
2018-11-06T21:25:24.523Z,99015.89
2018-11-06T21:27:53.101Z,99017.27
2018-11-06T21:30:22.638Z,99029.62
2018-11-06T21:32:52.682Z,99029.23
2018-11-06T21:35:21.402Z,99029.28
2018-11-06T21:37:50.053Z,99035.68
2018-11-06T21:40:19.951Z,99031.86
2018-11-06T21:42:48.957Z,99023.21
2018-11-06T21:45:18.064Z,99031.71
2018-11-06T21:47:47.551Z,99040.21
2018-11-06T21:50:17.738Z,99042.11
2018-11-06T21:52:46.352Z,99031.30
2018-11-06T21:55:16.281Z,99036.29
2018-11-06T21:57:44.968Z,99021.52
2018-11-06T22:00:20.775Z,99022.84
2018-11-06T22:02:49.459Z,99033.84
2018-11-06T22:05:19.342Z,99047.55
2018-11-06T22:07:48.194Z,99050.72
2018-11-06T22:10:18.519Z,99050.33
2018-11-06T22:12:47.412Z,99050.38
2018-11-06T22:15:17.593Z,99047.30
2018-11-06T22:17:46.251Z,99040.17
2018-11-06T22:20:16.174Z,99051.17
2018-11-06T22:22:45.259Z,99041.23
2018-11-06T22:25:13.837Z,99025.98
2018-11-06T22:27:42.607Z,99036.53
2018-11-06T22:30:12.820Z,99041.41
2018-11-06T22:32:42.111Z,99045.28
2018-11-06T22:35:12.363Z,99051.04
2018-11-06T22:37:40.891Z,99049.77
2018-11-06T22:40:10.704Z,99053.38
2018-11-06T22:42:39.587Z,99053.47
2018-11-06T22:45:10.713Z,99043.36
2018-11-06T22:47:39.281Z,99045.65
2018-11-06T22:50:09.175Z,99045.73
2018-11-06T22:52:37.693Z,99055.45
2018-11-06T22:55:06.465Z,99055.06
2018-11-06T22:57:35.166Z,99057.83
2018-11-06T23:00:03.909Z,99051.68
2018-11-06T23:02:32.537Z,99057.48
2018-11-06T23:05:01.120Z,99045.27
2018-11-06T23:07:34.893Z,99046.67
2018-11-06T23:10:03.515Z,99043.95
2018-11-06T23:12:32.038Z,99045.27
2018-11-06T23:15:00.618Z,99036.17
2018-11-06T23:17:29.210Z,99041.97
2018-11-06T23:19:57.819Z,99037.67
2018-11-06T23:22:26.589Z,99043.42
2018-11-06T23:24:55.339Z,99038.02
2018-11-06T23:27:23.815Z,99029.62
2018-11-06T23:29:52.400Z,99030.90
2018-11-06T23:32:20.978Z,99037.54
2018-11-06T23:34:49.551Z,99041.97
2018-11-06T23:37:18.121Z,99040.26
2018-11-06T23:39:46.744Z,99046.84
2018-11-06T23:42:15.300Z,99045.63
2018-11-06T23:44:43.939Z,99043.73
2018-11-06T23:47:12.529Z,99056.13
2018-11-06T23:49:41.111Z,99063.11
2018-11-06T23:52:09.739Z,99070.17
2018-11-06T23:54:38.345Z,99068.03
2018-11-06T23:57:06.943Z,99060.55
2018-11-06T23:59:35.447Z,99065.30
